sensor_id;sensor_type;location;lat;lon;timestamp;temperature;humidity
4556;DHT22;2290;48.674;9.018;2023-01-05T00:02:11;9.50;99.90
4556;DHT22;2290;48.674;9.018;2023-01-05T00:04:37;9.50;99.90
4556;DHT22;2290;48.674;9.018;2023-01-05T00:07:02;9.60;99.90
4556;DHT22;2290;48.674;9.018;2023-01-05T00:09:28;9.60;99.90
4556;DHT22;2290;48.674;9.018;2023-01-05T00:11:54;9.60;99.90
4556;DHT22;2290;48.674;9.018;2023-01-05T00:14:38;9.60;99.90
4556;DHT22;2290;48.674;9.018;2023-01-05T00:17:23;9.60;99.90
4556;DHT22;2290;48.674;9.018;2023-01-05T00:20:19;9.60;99.90
4556;DHT22;2290;48.674;9.018;2023-01-05T00:23:04;9.60;99.90
4556;DHT22;2290;48.674;9.018;2023-01-05T00:25:31;9.60;99.90
4556;DHT22;2290;48.674;9.018;2023-01-05T00:27:58;9.60;99.90
4556;DHT22;2290;48.674;9.018;2023-01-05T00:30:46;9.60;99.90
4556;DHT22;2290;48.674;9.018;2023-01-05T00:33:14;9.60;99.90
4556;DHT22;2290;48.674;9.018;2023-01-05T00:35:40;9.60;99.90
4556;DHT22;2290;48.674;9.018;2023-01-05T00:38:07;9.60;99.90
4556;DHT22;2290;48.674;9.018;2023-01-05T00:40:34;9.60;99.90
4556;DHT22;2290;48.674;9.018;2023-01-05T00:42:59;9.60;99.90
4556;DHT22;2290;48.674;9.018;2023-01-05T00:45:25;9.60;99.90
4556;DHT22;2290;48.674;9.018;2023-01-05T00:47:51;9.60;99.90
4556;DHT22;2290;48.674;9.018;2023-01-05T00:50:19;9.60;99.90
4556;DHT22;2290;48.674;9.018;2023-01-05T00:52:44;9.60;99.90
4556;DHT22;2290;48.674;9.018;2023-01-05T00:55:10;9.70;99.90
4556;DHT22;2290;48.674;9.018;2023-01-05T00:57:37;9.70;99.90
4556;DHT22;2290;48.674;9.018;2023-01-05T01:00:05;9.70;99.90
4556;DHT22;2290;48.674;9.018;2023-01-05T01:02:31;9.70;99.90
4556;DHT22;2290;48.674;9.018;2023-01-05T01:04:57;9.70;99.90
4556;DHT22;2290;48.674;9.018;2023-01-05T01:07:23;9.70;99.90
4556;DHT22;2290;48.674;9.018;2023-01-05T01:09:48;9.60;99.90
4556;DHT22;2290;48.674;9.018;2023-01-05T01:12:14;9.60;99.90
4556;DHT22;2290;48.674;9.018;2023-01-05T01:14:40;9.60;99.90
4556;DHT22;2290;48.674;9.018;2023-01-05T01:17:05;9.60;99.90
4556;DHT22;2290;48.674;9.018;2023-01-05T01:19:31;9.60;99.90
4556;DHT22;2290;48.674;9.018;2023-01-05T01:21:56;9.60;99.90
4556;DHT22;2290;48.674;9.018;2023-01-05T01:24:26;9.60;99.90
4556;DHT22;2290;48.674;9.018;2023-01-05T01:26:52;9.60;99.90
4556;DHT22;2290;48.674;9.018;2023-01-05T01:29:18;9.60;99.90
4556;DHT22;2290;48.674;9.018;2023-01-05T01:31:46;9.60;99.90
4556;DHT22;2290;48.674;9.018;2023-01-05T01:34:12;9.60;99.90
4556;DHT22;2290;48.674;9.018;2023-01-05T01:36:37;9.70;99.90
4556;DHT22;2290;48.674;9.018;2023-01-05T01:39:03;9.60;99.90
4556;DHT22;2290;48.674;9.018;2023-01-05T01:41:29;9.70;99.90
4556;DHT22;2290;48.674;9.018;2023-01-05T01:43:55;9.70;99.90
4556;DHT22;2290;48.674;9.018;2023-01-05T01:46:22;9.60;99.90
4556;DHT22;2290;48.674;9.018;2023-01-05T01:48:52;9.60;99.90
4556;DHT22;2290;48.674;9.018;2023-01-05T01:51:26;9.60;99.90
4556;DHT22;2290;48.674;9.018;2023-01-05T01:53:56;9.60;99.90
4556;DHT22;2290;48.674;9.018;2023-01-05T01:56:23;9.60;99.90
4556;DHT22;2290;48.674;9.018;2023-01-05T01:58:51;9.70;99.90
4556;DHT22;2290;48.674;9.018;2023-01-05T02:01:18;9.70;99.90
4556;DHT22;2290;48.674;9.018;2023-01-05T02:03:43;9.60;99.90
4556;DHT22;2290;48.674;9.018;2023-01-05T02:06:10;9.60;99.90
4556;DHT22;2290;48.674;9.018;2023-01-05T02:08:35;9.50;99.90
4556;DHT22;2290;48.674;9.018;2023-01-05T02:11:33;9.60;99.90
4556;DHT22;2290;48.674;9.018;2023-01-05T02:28:50;9.50;99.90
4556;DHT22;2290;48.674;9.018;2023-01-05T02:34:06;9.50;99.90
4556;DHT22;2290;48.674;9.018;2023-01-05T02:39:48;9.60;99.90
4556;DHT22;2290;48.674;9.018;2023-01-05T02:42:20;9.60;99.90
4556;DHT22;2290;48.674;9.018;2023-01-05T02:44:46;9.60;99.90
4556;DHT22;2290;48.674;9.018;2023-01-05T02:49:58;9.60;99.90
4556;DHT22;2290;48.674;9.018;2023-01-05T02:52:26;9.60;99.90
4556;DHT22;2290;48.674;9.018;2023-01-05T02:55:01;9.70;99.90
4556;DHT22;2290;48.674;9.018;2023-01-05T02:57:31;9.60;99.90
4556;DHT22;2290;48.674;9.018;2023-01-05T03:03:23;9.70;99.90
4556;DHT22;2290;48.674;9.018;2023-01-05T03:05:59;9.70;99.90
4556;DHT22;2290;48.674;9.018;2023-01-05T03:08:29;9.80;99.90
4556;DHT22;2290;48.674;9.018;2023-01-05T03:11:05;9.80;99.90
4556;DHT22;2290;48.674;9.018;2023-01-05T03:16:35;10.00;99.90
4556;DHT22;2290;48.674;9.018;2023-01-05T03:19:04;10.00;99.90
4556;DHT22;2290;48.674;9.018;2023-01-05T03:21:51;10.10;99.90
4556;DHT22;2290;48.674;9.018;2023-01-05T03:24:37;10.10;99.90
4556;DHT22;2290;48.674;9.018;2023-01-05T03:27:22;10.10;99.90
4556;DHT22;2290;48.674;9.018;2023-01-05T03:30:07;10.10;99.90
4556;DHT22;2290;48.674;9.018;2023-01-05T03:32:58;10.20;99.90
4556;DHT22;2290;48.674;9.018;2023-01-05T03:35:45;10.10;99.90
4556;DHT22;2290;48.674;9.018;2023-01-05T03:38:41;10.10;99.90
4556;DHT22;2290;48.674;9.018;2023-01-05T03:41:07;10.20;99.90
4556;DHT22;2290;48.674;9.018;2023-01-05T03:43:35;10.20;99.90
4556;DHT22;2290;48.674;9.018;2023-01-05T03:46:13;10.20;99.90
4556;DHT22;2290;48.674;9.018;2023-01-05T03:48:39;10.20;99.90
4556;DHT22;2290;48.674;9.018;2023-01-05T03:51:05;10.20;99.90
4556;DHT22;2290;48.674;9.018;2023-01-05T03:53:30;10.30;99.90
4556;DHT22;2290;48.674;9.018;2023-01-05T03:55:56;10.30;99.90
4556;DHT22;2290;48.674;9.018;2023-01-05T03:58:22;10.30;99.90
4556;DHT22;2290;48.674;9.018;2023-01-05T04:00:47;10.30;99.90
4556;DHT22;2290;48.674;9.018;2023-01-05T04:03:13;10.30;99.90
4556;DHT22;2290;48.674;9.018;2023-01-05T04:05:38;10.40;99.90
4556;DHT22;2290;48.674;9.018;2023-01-05T04:08:04;10.40;99.90
4556;DHT22;2290;48.674;9.018;2023-01-05T04:10:30;10.40;99.90
4556;DHT22;2290;48.674;9.018;2023-01-05T04:12:55;10.40;99.90
4556;DHT22;2290;48.674;9.018;2023-01-05T04:15:21;10.40;99.90
4556;DHT22;2290;48.674;9.018;2023-01-05T04:17:47;10.40;99.90
4556;DHT22;2290;48.674;9.018;2023-01-05T04:20:13;10.40;99.90
4556;DHT22;2290;48.674;9.018;2023-01-05T04:22:38;10.40;99.90
4556;DHT22;2290;48.674;9.018;2023-01-05T04:25:04;10.50;99.90
4556;DHT22;2290;48.674;9.018;2023-01-05T04:27:30;10.50;99.90
4556;DHT22;2290;48.674;9.018;2023-01-05T04:29:56;10.50;99.90
4556;DHT22;2290;48.674;9.018;2023-01-05T04:32:21;10.60;99.90
4556;DHT22;2290;48.674;9.018;2023-01-05T04:34:47;10.50;99.90
4556;DHT22;2290;48.674;9.018;2023-01-05T04:37:12;10.50;99.90
4556;DHT22;2290;48.674;9.018;2023-01-05T04:39:38;10.50;99.90
4556;DHT22;2290;48.674;9.018;2023-01-05T04:42:03;10.50;99.90
4556;DHT22;2290;48.674;9.018;2023-01-05T04:44:29;10.50;99.90
4556;DHT22;2290;48.674;9.018;2023-01-05T04:46:55;10.50;99.90
4556;DHT22;2290;48.674;9.018;2023-01-05T04:49:20;10.50;99.90
4556;DHT22;2290;48.674;9.018;2023-01-05T04:51:46;10.50;99.90
4556;DHT22;2290;48.674;9.018;2023-01-05T04:54:11;10.50;99.90
4556;DHT22;2290;48.674;9.018;2023-01-05T04:56:37;10.40;99.90
4556;DHT22;2290;48.674;9.018;2023-01-05T04:59:02;10.50;99.90
4556;DHT22;2290;48.674;9.018;2023-01-05T05:01:28;10.50;99.90
4556;DHT22;2290;48.674;9.018;2023-01-05T05:03:53;10.40;99.90
4556;DHT22;2290;48.674;9.018;2023-01-05T05:06:19;10.40;99.90
4556;DHT22;2290;48.674;9.018;2023-01-05T05:08:44;10.40;99.90
4556;DHT22;2290;48.674;9.018;2023-01-05T05:11:10;10.40;99.90
4556;DHT22;2290;48.674;9.018;2023-01-05T05:13:37;10.40;99.90
4556;DHT22;2290;48.674;9.018;2023-01-05T05:16:03;10.40;99.90
4556;DHT22;2290;48.674;9.018;2023-01-05T05:18:28;10.50;99.90
4556;DHT22;2290;48.674;9.018;2023-01-05T05:20:54;10.50;99.90
4556;DHT22;2290;48.674;9.018;2023-01-05T05:23:20;10.40;99.90
4556;DHT22;2290;48.674;9.018;2023-01-05T05:25:49;10.40;99.90
4556;DHT22;2290;48.674;9.018;2023-01-05T05:28:15;10.30;99.90
4556;DHT22;2290;48.674;9.018;2023-01-05T05:30:41;10.40;99.90
4556;DHT22;2290;48.674;9.018;2023-01-05T05:33:06;10.40;99.90
4556;DHT22;2290;48.674;9.018;2023-01-05T05:35:32;10.40;99.90
4556;DHT22;2290;48.674;9.018;2023-01-05T05:37:57;10.40;99.90
4556;DHT22;2290;48.674;9.018;2023-01-05T05:40:23;10.50;99.90
4556;DHT22;2290;48.674;9.018;2023-01-05T05:42:50;10.50;99.90
4556;DHT22;2290;48.674;9.018;2023-01-05T05:45:16;10.40;99.90
4556;DHT22;2290;48.674;9.018;2023-01-05T05:47:42;10.50;99.90
4556;DHT22;2290;48.674;9.018;2023-01-05T05:50:08;10.40;99.90
4556;DHT22;2290;48.674;9.018;2023-01-05T05:52:34;10.40;99.90
4556;DHT22;2290;48.674;9.018;2023-01-05T05:54:59;10.40;99.90
4556;DHT22;2290;48.674;9.018;2023-01-05T05:57:25;10.40;99.90
4556;DHT22;2290;48.674;9.018;2023-01-05T05:59:50;10.40;99.90
4556;DHT22;2290;48.674;9.018;2023-01-05T06:02:16;10.40;99.90
4556;DHT22;2290;48.674;9.018;2023-01-05T06:04:42;10.40;99.90
4556;DHT22;2290;48.674;9.018;2023-01-05T06:07:08;10.40;99.90
4556;DHT22;2290;48.674;9.018;2023-01-05T06:09:33;10.40;99.90
4556;DHT22;2290;48.674;9.018;2023-01-05T06:11:59;10.40;99.90
4556;DHT22;2290;48.674;9.018;2023-01-05T06:14:24;10.40;99.90
4556;DHT22;2290;48.674;9.018;2023-01-05T06:16:50;10.40;99.90
4556;DHT22;2290;48.674;9.018;2023-01-05T06:19:16;10.40;99.90
4556;DHT22;2290;48.674;9.018;2023-01-05T06:21:41;10.40;99.90
4556;DHT22;2290;48.674;9.018;2023-01-05T06:24:08;10.40;99.90
4556;DHT22;2290;48.674;9.018;2023-01-05T06:26:34;10.50;99.90
4556;DHT22;2290;48.674;9.018;2023-01-05T06:28:59;10.40;99.90
4556;DHT22;2290;48.674;9.018;2023-01-05T06:31:25;10.40;99.90
4556;DHT22;2290;48.674;9.018;2023-01-05T06:33:51;10.40;99.90
4556;DHT22;2290;48.674;9.018;2023-01-05T06:36:17;10.40;99.90
4556;DHT22;2290;48.674;9.018;2023-01-05T06:38:43;10.40;99.90
4556;DHT22;2290;48.674;9.018;2023-01-05T06:41:08;10.40;99.90
4556;DHT22;2290;48.674;9.018;2023-01-05T06:43:34;10.40;99.90
4556;DHT22;2290;48.674;9.018;2023-01-05T06:46:00;10.40;99.90
4556;DHT22;2290;48.674;9.018;2023-01-05T06:48:25;10.40;99.90
4556;DHT22;2290;48.674;9.018;2023-01-05T06:50:51;10.40;99.90
4556;DHT22;2290;48.674;9.018;2023-01-05T06:53:17;10.40;99.90
4556;DHT22;2290;48.674;9.018;2023-01-05T06:55:43;10.40;99.90
4556;DHT22;2290;48.674;9.018;2023-01-05T06:58:09;10.30;99.90
4556;DHT22;2290;48.674;9.018;2023-01-05T07:00:34;10.30;99.90
4556;DHT22;2290;48.674;9.018;2023-01-05T07:03:00;10.20;99.90
4556;DHT22;2290;48.674;9.018;2023-01-05T07:05:26;10.10;99.90
4556;DHT22;2290;48.674;9.018;2023-01-05T07:07:52;10.10;99.90
4556;DHT22;2290;48.674;9.018;2023-01-05T07:10:17;10.10;99.90
4556;DHT22;2290;48.674;9.018;2023-01-05T07:12:43;10.00;99.90
4556;DHT22;2290;48.674;9.018;2023-01-05T07:15:09;10.00;99.90
4556;DHT22;2290;48.674;9.018;2023-01-05T07:17:34;9.90;99.90
4556;DHT22;2290;48.674;9.018;2023-01-05T07:20:01;9.90;99.90
4556;DHT22;2290;48.674;9.018;2023-01-05T07:22:27;9.90;99.90
4556;DHT22;2290;48.674;9.018;2023-01-05T07:24:55;9.90;99.90
4556;DHT22;2290;48.674;9.018;2023-01-05T07:27:21;10.00;99.90
4556;DHT22;2290;48.674;9.018;2023-01-05T07:29:47;10.00;99.90
4556;DHT22;2290;48.674;9.018;2023-01-05T07:32:12;10.10;99.90
4556;DHT22;2290;48.674;9.018;2023-01-05T07:34:38;10.10;99.90
4556;DHT22;2290;48.674;9.018;2023-01-05T07:37:03;10.10;99.90
4556;DHT22;2290;48.674;9.018;2023-01-05T07:39:29;10.10;99.90
4556;DHT22;2290;48.674;9.018;2023-01-05T07:41:54;10.10;99.90
4556;DHT22;2290;48.674;9.018;2023-01-05T07:44:20;10.10;99.90
4556;DHT22;2290;48.674;9.018;2023-01-05T07:46:45;10.10;99.90
4556;DHT22;2290;48.674;9.018;2023-01-05T07:49:11;10.10;99.90
4556;DHT22;2290;48.674;9.018;2023-01-05T07:51:37;10.10;99.90
4556;DHT22;2290;48.674;9.018;2023-01-05T07:54:04;10.20;99.90
4556;DHT22;2290;48.674;9.018;2023-01-05T07:56:29;10.20;99.90
4556;DHT22;2290;48.674;9.018;2023-01-05T07:58:56;10.20;99.90
4556;DHT22;2290;48.674;9.018;2023-01-05T08:01:23;10.20;99.90
4556;DHT22;2290;48.674;9.018;2023-01-05T08:03:48;10.20;99.90
4556;DHT22;2290;48.674;9.018;2023-01-05T08:06:16;10.20;99.90
4556;DHT22;2290;48.674;9.018;2023-01-05T08:08:42;10.30;99.90
4556;DHT22;2290;48.674;9.018;2023-01-05T08:11:11;10.20;99.90
4556;DHT22;2290;48.674;9.018;2023-01-05T08:13:44;10.30;99.90
4556;DHT22;2290;48.674;9.018;2023-01-05T08:16:28;10.20;99.90
4556;DHT22;2290;48.674;9.018;2023-01-05T08:18:55;10.20;99.90
4556;DHT22;2290;48.674;9.018;2023-01-05T08:21:21;10.30;99.90
4556;DHT22;2290;48.674;9.018;2023-01-05T08:23:46;10.30;99.90
4556;DHT22;2290;48.674;9.018;2023-01-05T08:26:15;10.50;99.90
4556;DHT22;2290;48.674;9.018;2023-01-05T08:28:42;10.60;99.90
4556;DHT22;2290;48.674;9.018;2023-01-05T08:31:18;10.60;99.90
4556;DHT22;2290;48.674;9.018;2023-01-05T08:33:44;10.50;99.90
4556;DHT22;2290;48.674;9.018;2023-01-05T08:36:12;10.40;99.90
4556;DHT22;2290;48.674;9.018;2023-01-05T08:38:38;10.40;99.90
4556;DHT22;2290;48.674;9.018;2023-01-05T08:41:15;10.40;99.90
4556;DHT22;2290;48.674;9.018;2023-01-05T08:43:41;10.40;99.90
4556;DHT22;2290;48.674;9.018;2023-01-05T08:46:06;10.40;99.90
4556;DHT22;2290;48.674;9.018;2023-01-05T08:48:32;10.30;99.90
4556;DHT22;2290;48.674;9.018;2023-01-05T08:51:00;10.20;99.90
4556;DHT22;2290;48.674;9.018;2023-01-05T08:53:34;10.20;99.90
4556;DHT22;2290;48.674;9.018;2023-01-05T08:56:00;10.20;99.90
4556;DHT22;2290;48.674;9.018;2023-01-05T08:58:26;10.20;99.90
4556;DHT22;2290;48.674;9.018;2023-01-05T09:00:52;10.20;99.90
4556;DHT22;2290;48.674;9.018;2023-01-05T09:03:18;10.20;99.90
4556;DHT22;2290;48.674;9.018;2023-01-05T09:05:44;10.20;99.90
4556;DHT22;2290;48.674;9.018;2023-01-05T09:08:09;10.10;99.90
4556;DHT22;2290;48.674;9.018;2023-01-05T09:10:36;10.20;99.90
4556;DHT22;2290;48.674;9.018;2023-01-05T09:13:01;10.10;99.90
4556;DHT22;2290;48.674;9.018;2023-01-05T09:15:28;10.10;99.90
4556;DHT22;2290;48.674;9.018;2023-01-05T09:17:54;10.10;99.90
4556;DHT22;2290;48.674;9.018;2023-01-05T09:20:19;10.10;99.90
4556;DHT22;2290;48.674;9.018;2023-01-05T09:22:45;10.10;99.90
4556;DHT22;2290;48.674;9.018;2023-01-05T09:25:10;10.10;99.90
4556;DHT22;2290;48.674;9.018;2023-01-05T09:27:36;10.10;99.90
4556;DHT22;2290;48.674;9.018;2023-01-05T09:30:03;10.10;99.90
4556;DHT22;2290;48.674;9.018;2023-01-05T09:32:29;10.20;99.90
4556;DHT22;2290;48.674;9.018;2023-01-05T09:34:54;10.20;99.90
4556;DHT22;2290;48.674;9.018;2023-01-05T09:37:20;10.20;99.90
4556;DHT22;2290;48.674;9.018;2023-01-05T09:39:46;10.20;99.90
4556;DHT22;2290;48.674;9.018;2023-01-05T09:42:14;10.20;99.90
4556;DHT22;2290;48.674;9.018;2023-01-05T09:44:58;10.20;99.90
4556;DHT22;2290;48.674;9.018;2023-01-05T09:47:42;10.20;99.90
4556;DHT22;2290;48.674;9.018;2023-01-05T09:50:22;10.10;99.90
4556;DHT22;2290;48.674;9.018;2023-01-05T09:52:49;10.20;99.90
4556;DHT22;2290;48.674;9.018;2023-01-05T09:55:18;10.10;99.90
4556;DHT22;2290;48.674;9.018;2023-01-05T09:57:56;10.20;99.90
4556;DHT22;2290;48.674;9.018;2023-01-05T10:00:24;10.20;99.90
4556;DHT22;2290;48.674;9.018;2023-01-05T10:03:17;10.20;99.90
4556;DHT22;2290;48.674;9.018;2023-01-05T10:05:44;10.30;99.90
4556;DHT22;2290;48.674;9.018;2023-01-05T10:08:22;10.40;99.90
4556;DHT22;2290;48.674;9.018;2023-01-05T10:10:55;10.40;99.90
4556;DHT22;2290;48.674;9.018;2023-01-05T10:13:53;10.50;99.90
4556;DHT22;2290;48.674;9.018;2023-01-05T10:16:20;10.50;99.90
4556;DHT22;2290;48.674;9.018;2023-01-05T10:18:46;10.50;99.90
4556;DHT22;2290;48.674;9.018;2023-01-05T10:24:15;10.40;99.90
4556;DHT22;2290;48.674;9.018;2023-01-05T10:27:05;10.50;99.90
4556;DHT22;2290;48.674;9.018;2023-01-05T10:29:45;10.50;99.90
4556;DHT22;2290;48.674;9.018;2023-01-05T10:43:48;10.60;99.90
4556;DHT22;2290;48.674;9.018;2023-01-05T10:46:20;10.60;99.90
4556;DHT22;2290;48.674;9.018;2023-01-05T10:48:46;10.70;99.90
4556;DHT22;2290;48.674;9.018;2023-01-05T10:51:12;10.80;99.90
4556;DHT22;2290;48.674;9.018;2023-01-05T10:53:41;10.90;99.90
4556;DHT22;2290;48.674;9.018;2023-01-05T10:58:45;11.10;99.90
4556;DHT22;2290;48.674;9.018;2023-01-05T11:01:24;11.10;99.90
4556;DHT22;2290;48.674;9.018;2023-01-05T11:03:54;11.10;99.90
4556;DHT22;2290;48.674;9.018;2023-01-05T11:06:28;11.10;99.90
4556;DHT22;2290;48.674;9.018;2023-01-05T11:09:11;11.10;99.90
4556;DHT22;2290;48.674;9.018;2023-01-05T11:11:42;10.90;99.90
4556;DHT22;2290;48.674;9.018;2023-01-05T11:14:14;10.90;99.90
4556;DHT22;2290;48.674;9.018;2023-01-05T11:16:46;10.90;99.90
4556;DHT22;2290;48.674;9.018;2023-01-05T11:19:15;10.80;99.90
4556;DHT22;2290;48.674;9.018;2023-01-05T11:21:44;10.90;99.90
4556;DHT22;2290;48.674;9.018;2023-01-05T11:24:33;10.80;99.90
4556;DHT22;2290;48.674;9.018;2023-01-05T11:27:01;10.80;99.90
4556;DHT22;2290;48.674;9.018;2023-01-05T11:29:28;10.80;99.90
4556;DHT22;2290;48.674;9.018;2023-01-05T11:32:01;10.80;99.90
4556;DHT22;2290;48.674;9.018;2023-01-05T11:34:32;10.90;99.90
4556;DHT22;2290;48.674;9.018;2023-01-05T11:42:18;10.80;99.90
4556;DHT22;2290;48.674;9.018;2023-01-05T11:45:36;10.80;99.90
4556;DHT22;2290;48.674;9.018;2023-01-05T11:47:42;10.70;99.90
4556;DHT22;2290;48.674;9.018;2023-01-05T11:52:57;10.70;99.90
4556;DHT22;2290;48.674;9.018;2023-01-05T11:55:39;10.80;99.90
4556;DHT22;2290;48.674;9.018;2023-01-05T11:58:23;10.80;99.90
4556;DHT22;2290;48.674;9.018;2023-01-05T12:01:24;10.70;99.90
4556;DHT22;2290;48.674;9.018;2023-01-05T12:21:23;10.80;99.90
4556;DHT22;2290;48.674;9.018;2023-01-05T12:24:20;10.70;99.90
4556;DHT22;2290;48.674;9.018;2023-01-05T12:26:48;10.80;99.90
4556;DHT22;2290;48.674;9.018;2023-01-05T12:35:28;10.90;99.90
4556;DHT22;2290;48.674;9.018;2023-01-05T12:43:51;10.70;99.90
4556;DHT22;2290;48.674;9.018;2023-01-05T12:49:07;10.60;99.90
4556;DHT22;2290;48.674;9.018;2023-01-05T12:51:39;10.70;99.90
4556;DHT22;2290;48.674;9.018;2023-01-05T12:57:11;10.80;99.90
4556;DHT22;2290;48.674;9.018;2023-01-05T12:59:47;10.70;99.90
4556;DHT22;2290;48.674;9.018;2023-01-05T13:02:37;10.80;99.90
4556;DHT22;2290;48.674;9.018;2023-01-05T13:08:15;10.60;99.90
4556;DHT22;2290;48.674;9.018;2023-01-05T13:13:36;10.60;99.90
4556;DHT22;2290;48.674;9.018;2023-01-05T13:16:26;10.70;99.90
4556;DHT22;2290;48.674;9.018;2023-01-05T13:19:22;10.70;99.90
4556;DHT22;2290;48.674;9.018;2023-01-05T13:21:51;10.70;99.90
4556;DHT22;2290;48.674;9.018;2023-01-05T13:24:29;10.80;99.90
4556;DHT22;2290;48.674;9.018;2023-01-05T13:26:58;10.70;99.90
4556;DHT22;2290;48.674;9.018;2023-01-05T13:29:26;10.80;99.90
4556;DHT22;2290;48.674;9.018;2023-01-05T13:32:00;10.80;99.90
4556;DHT22;2290;48.674;9.018;2023-01-05T13:34:44;10.70;99.90
4556;DHT22;2290;48.674;9.018;2023-01-05T13:43:16;10.60;99.90
4556;DHT22;2290;48.674;9.018;2023-01-05T13:46:22;10.60;99.90
4556;DHT22;2290;48.674;9.018;2023-01-05T13:49:18;10.70;99.90
4556;DHT22;2290;48.674;9.018;2023-01-05T13:51:57;10.70;99.90
4556;DHT22;2290;48.674;9.018;2023-01-05T13:54:55;10.70;99.90
4556;DHT22;2290;48.674;9.018;2023-01-05T13:57:46;10.70;99.90
4556;DHT22;2290;48.674;9.018;2023-01-05T14:02:59;10.70;99.90
4556;DHT22;2290;48.674;9.018;2023-01-05T14:05:38;10.70;99.90
4556;DHT22;2290;48.674;9.018;2023-01-05T14:08:21;10.60;99.90
4556;DHT22;2290;48.674;9.018;2023-01-05T14:11:13;10.60;99.90
4556;DHT22;2290;48.674;9.018;2023-01-05T14:16:46;10.60;99.90
4556;DHT22;2290;48.674;9.018;2023-01-05T14:19:25;10.70;99.90
4556;DHT22;2290;48.674;9.018;2023-01-05T14:21:58;10.70;99.90
4556;DHT22;2290;48.674;9.018;2023-01-05T14:24:35;10.60;99.90
4556;DHT22;2290;48.674;9.018;2023-01-05T14:27:08;10.70;99.90
4556;DHT22;2290;48.674;9.018;2023-01-05T14:29:58;10.70;99.90
4556;DHT22;2290;48.674;9.018;2023-01-05T14:32:38;10.60;99.90
4556;DHT22;2290;48.674;9.018;2023-01-05T14:35:27;10.60;99.90
4556;DHT22;2290;48.674;9.018;2023-01-05T14:37:55;10.60;99.90
4556;DHT22;2290;48.674;9.018;2023-01-05T14:40:31;10.60;99.90
4556;DHT22;2290;48.674;9.018;2023-01-05T14:42:59;10.70;99.90
4556;DHT22;2290;48.674;9.018;2023-01-05T14:45:30;10.60;99.90
4556;DHT22;2290;48.674;9.018;2023-01-05T14:48:01;10.50;99.90
4556;DHT22;2290;48.674;9.018;2023-01-05T14:50:39;10.50;99.90
4556;DHT22;2290;48.674;9.018;2023-01-05T14:55:39;10.50;99.90
4556;DHT22;2290;48.674;9.018;2023-01-05T15:01:01;10.50;99.90
4556;DHT22;2290;48.674;9.018;2023-01-05T15:03:35;10.50;99.90
4556;DHT22;2290;48.674;9.018;2023-01-05T15:06:39;10.60;99.90
4556;DHT22;2290;48.674;9.018;2023-01-05T15:17:50;10.50;99.90
4556;DHT22;2290;48.674;9.018;2023-01-05T15:26:02;10.50;99.90
4556;DHT22;2290;48.674;9.018;2023-01-05T15:31:26;10.60;99.90
4556;DHT22;2290;48.674;9.018;2023-01-05T15:34:15;10.50;99.90
4556;DHT22;2290;48.674;9.018;2023-01-05T15:37:10;10.50;99.90
4556;DHT22;2290;48.674;9.018;2023-01-05T15:39:49;10.50;99.90
4556;DHT22;2290;48.674;9.018;2023-01-05T15:42:26;10.50;99.90
4556;DHT22;2290;48.674;9.018;2023-01-05T15:44:54;10.60;99.90
4556;DHT22;2290;48.674;9.018;2023-01-05T15:47:23;10.60;99.90
4556;DHT22;2290;48.674;9.018;2023-01-05T15:49:55;10.60;99.90
4556;DHT22;2290;48.674;9.018;2023-01-05T15:52:32;10.50;99.90
4556;DHT22;2290;48.674;9.018;2023-01-05T15:55:10;10.50;99.90
4556;DHT22;2290;48.674;9.018;2023-01-05T15:57:36;10.50;99.90
4556;DHT22;2290;48.674;9.018;2023-01-05T16:00:20;10.50;99.90
4556;DHT22;2290;48.674;9.018;2023-01-05T16:02:45;10.50;99.90
4556;DHT22;2290;48.674;9.018;2023-01-05T16:05:17;10.50;99.90
4556;DHT22;2290;48.674;9.018;2023-01-05T16:07:56;10.50;99.90
4556;DHT22;2290;48.674;9.018;2023-01-05T16:15:39;10.60;99.90
4556;DHT22;2290;48.674;9.018;2023-01-05T16:18:10;10.50;99.90
4556;DHT22;2290;48.674;9.018;2023-01-05T16:20:38;10.50;99.90
4556;DHT22;2290;48.674;9.018;2023-01-05T16:25:46;10.50;99.90
4556;DHT22;2290;48.674;9.018;2023-01-05T16:28:17;10.50;99.90
4556;DHT22;2290;48.674;9.018;2023-01-05T16:30:46;10.60;99.90
4556;DHT22;2290;48.674;9.018;2023-01-05T16:33:29;10.60;99.90
4556;DHT22;2290;48.674;9.018;2023-01-05T16:36:21;10.50;99.90
4556;DHT22;2290;48.674;9.018;2023-01-05T16:38:47;10.60;99.90
4556;DHT22;2290;48.674;9.018;2023-01-05T16:41:21;10.50;99.90
4556;DHT22;2290;48.674;9.018;2023-01-05T16:43:57;10.40;99.90
4556;DHT22;2290;48.674;9.018;2023-01-05T16:46:37;10.50;99.90
4556;DHT22;2290;48.674;9.018;2023-01-05T16:49:26;10.50;99.90
4556;DHT22;2290;48.674;9.018;2023-01-05T16:51:53;10.50;99.90
4556;DHT22;2290;48.674;9.018;2023-01-05T16:54:26;10.50;99.90
4556;DHT22;2290;48.674;9.018;2023-01-05T16:57:02;10.50;99.90
4556;DHT22;2290;48.674;9.018;2023-01-05T17:02:29;10.40;99.90
4556;DHT22;2290;48.674;9.018;2023-01-05T17:04:55;10.50;99.90
4556;DHT22;2290;48.674;9.018;2023-01-05T17:07:21;10.50;99.90
4556;DHT22;2290;48.674;9.018;2023-01-05T17:09:47;10.50;99.90
4556;DHT22;2290;48.674;9.018;2023-01-05T17:12:13;10.60;99.90
4556;DHT22;2290;48.674;9.018;2023-01-05T17:14:39;10.60;99.90
4556;DHT22;2290;48.674;9.018;2023-01-05T17:17:09;10.50;99.90
4556;DHT22;2290;48.674;9.018;2023-01-05T17:19:35;10.60;99.90
4556;DHT22;2290;48.674;9.018;2023-01-05T17:22:04;10.60;99.90
4556;DHT22;2290;48.674;9.018;2023-01-05T17:24:30;10.70;99.90
4556;DHT22;2290;48.674;9.018;2023-01-05T17:26:56;10.90;99.90
4556;DHT22;2290;48.674;9.018;2023-01-05T17:29:24;11.00;99.90
4556;DHT22;2290;48.674;9.018;2023-01-05T17:31:50;11.00;99.90
4556;DHT22;2290;48.674;9.018;2023-01-05T17:34:16;10.90;99.90
4556;DHT22;2290;48.674;9.018;2023-01-05T17:36:43;10.90;99.90
4556;DHT22;2290;48.674;9.018;2023-01-05T17:39:16;10.90;99.90
4556;DHT22;2290;48.674;9.018;2023-01-05T17:41:42;10.80;99.90
4556;DHT22;2290;48.674;9.018;2023-01-05T17:44:08;10.70;99.90
4556;DHT22;2290;48.674;9.018;2023-01-05T17:46:37;10.70;99.90
4556;DHT22;2290;48.674;9.018;2023-01-05T17:49:05;10.70;99.90
4556;DHT22;2290;48.674;9.018;2023-01-05T17:51:32;10.70;99.90
4556;DHT22;2290;48.674;9.018;2023-01-05T17:53:58;10.60;99.90
4556;DHT22;2290;48.674;9.018;2023-01-05T17:56:24;10.60;99.90
4556;DHT22;2290;48.674;9.018;2023-01-05T17:58:50;10.60;99.90
4556;DHT22;2290;48.674;9.018;2023-01-05T18:01:17;10.60;99.90
4556;DHT22;2290;48.674;9.018;2023-01-05T18:03:43;10.50;99.90
4556;DHT22;2290;48.674;9.018;2023-01-05T18:06:08;10.50;99.90
4556;DHT22;2290;48.674;9.018;2023-01-05T18:08:35;10.60;99.90
4556;DHT22;2290;48.674;9.018;2023-01-05T18:11:02;10.50;99.90
4556;DHT22;2290;48.674;9.018;2023-01-05T18:13:28;10.50;99.90
4556;DHT22;2290;48.674;9.018;2023-01-05T18:15:54;10.60;99.90
4556;DHT22;2290;48.674;9.018;2023-01-05T18:18:21;10.50;99.90
4556;DHT22;2290;48.674;9.018;2023-01-05T18:20:47;10.50;99.90
4556;DHT22;2290;48.674;9.018;2023-01-05T18:23:16;10.50;99.90
4556;DHT22;2290;48.674;9.018;2023-01-05T18:25:42;10.60;99.90
4556;DHT22;2290;48.674;9.018;2023-01-05T18:28:07;10.50;99.90
4556;DHT22;2290;48.674;9.018;2023-01-05T18:30:33;10.40;99.90
4556;DHT22;2290;48.674;9.018;2023-01-05T18:32:59;10.40;99.90
4556;DHT22;2290;48.674;9.018;2023-01-05T18:35:25;10.40;99.90
4556;DHT22;2290;48.674;9.018;2023-01-05T18:37:50;10.40;99.90
4556;DHT22;2290;48.674;9.018;2023-01-05T18:40:16;10.30;99.90
4556;DHT22;2290;48.674;9.018;2023-01-05T18:42:41;10.40;99.90
4556;DHT22;2290;48.674;9.018;2023-01-05T18:45:08;10.40;99.90
4556;DHT22;2290;48.674;9.018;2023-01-05T18:47:33;10.40;99.90